This is the latest recevied weather packets stored in our database for station/object SP9MUF-14. If no packets are shown the sender has not sent any weather packets the latest 10 day(s).
| Time | Temp. | Humidity | Pressure | Rain* | Wind** | Luminosity | Snow |
|---|---|---|---|---|---|---|---|
| 1777276002 | 10° C | 37% | 1024.2 hPa | 0 mm | - | 470 W/m² | - |
| 1777275702 | 10° C | 38% | 1024.1 hPa | 0 mm | - | 453 W/m² | - |
| 1777275394 | 10° C | 42% | 1024.1 hPa | 0 mm | - | 446 W/m² | - |
| 1777275090 | 8.89° C | 41% | 1024.3 hPa | 0 mm | - | 437 W/m² | - |
| 1777274482 | 8.89° C | 46% | 1024.4 hPa | 0 mm | - | 403 W/m² | - |
| 1777273875 | 7.78° C | 49% | 1024.5 hPa | 0 mm | - | 383 W/m² | - |
| 1777272659 | 7.78° C | 49% | 1024.6 hPa | 0 mm | - | 44 W/m² | - |
| 1777272359 | 7.78° C | 49% | 1024.7 hPa | 0 mm | - | 42 W/m² | - |
| 1777271747 | 6.67° C | 50% | 1024.8 hPa | 0 mm | - | 40 W/m² | - |
| 1777271143 | 5.56° C | 52% | 1024.8 hPa | 0 mm | - | 39 W/m² | - |
| 1777240129 | 2.78° C | 61% | 1025 hPa | 0 mm | - | 0 W/m² | - |
| 1777239825 | 3.89° C | 59% | 1025 hPa | 0 mm | - | 0 W/m² | - |
| 1777238914 | 3.89° C | 56% | 1025 hPa | 0 mm | - | 0 W/m² | - |
| 1777238609 | 3.89° C | 56% | 1024.9 hPa | 0 mm | - | 0 W/m² | - |
| 1777236784 | 3.89° C | 56% | 1024.8 hPa | 0 mm | - | 0 W/m² | - |
| 1777123286 | 17.78° C | 41% | 1010.8 hPa | 0 mm | - | 557 W/m² | - |
| 1777121158 | 17.78° C | 41% | 1010.8 hPa | 0 mm | - | 557 W/m² | - |
| 1777120854 | 17.78° C | 41% | 1010.8 hPa | 0 mm | - | 557 W/m² | - |
| 1777120550 | 17.78° C | 41% | 1010.8 hPa | 0 mm | - | 557 W/m² | - |
| 1777120249 | 17.78° C | 41% | 1010.8 hPa | 0 mm | - | 557 W/m² | - |
| 1777119335 | 16.67° C | 41% | 1011 hPa | 0 mm | - | 594 W/m² | - |
| 1777110519 | 15° C | 54% | 1012.6 hPa | 0 mm | - | 634 W/m² | - |
| 1777109911 | 13.89° C | 55% | 1012.9 hPa | 0 mm | - | 568 W/m² | - |
| 1777108999 | 12.78° C | 58% | 1013 hPa | 0 mm | - | 632 W/m² | - |
| 1777108695 | 13.89° C | 57% | 1013 hPa | 0 mm | - | 184 W/m² | - |
* Rain latest hour (hover to see other rain measurements)
** Current wind speed in m/s (hover to see current wind gust speed)